sensor_id;sensor_type;location;lat;lon;timestamp;P1;durP1;ratioP1;P2;durP2;ratioP2
53519;SDS011;39397;53.204;5.778;2022-10-29T00:00:38;37.90;;;10.73;;
53519;SDS011;39397;53.204;5.778;2022-10-29T00:03:04;42.35;;;11.02;;
53519;SDS011;39397;53.204;5.778;2022-10-29T00:05:30;44.13;;;13.05;;
53519;SDS011;39397;53.204;5.778;2022-10-29T00:07:56;53.60;;;13.50;;
53519;SDS011;39397;53.204;5.778;2022-10-29T00:10:22;51.85;;;12.70;;
53519;SDS011;39397;53.204;5.778;2022-10-29T00:12:48;48.13;;;12.38;;
53519;SDS011;39397;53.204;5.778;2022-10-29T00:15:13;40.22;;;11.68;;
53519;SDS011;39397;53.204;5.778;2022-10-29T00:17:39;46.03;;;12.27;;
53519;SDS011;39397;53.204;5.778;2022-10-29T00:20:05;47.35;;;11.73;;
53519;SDS011;39397;53.204;5.778;2022-10-29T00:22:31;55.45;;;13.60;;
53519;SDS011;39397;53.204;5.778;2022-10-29T00:24:57;57.33;;;15.00;;
53519;SDS011;39397;53.204;5.778;2022-10-29T00:27:23;60.53;;;15.25;;
53519;SDS011;39397;53.204;5.778;2022-10-29T00:29:49;94.20;;;16.00;;
53519;SDS011;39397;53.204;5.778;2022-10-29T00:32:14;97.32;;;18.52;;
53519;SDS011;39397;53.204;5.778;2022-10-29T00:34:40;149.40;;;17.52;;
53519;SDS011;39397;53.204;5.778;2022-10-29T00:37:06;137.43;;;16.45;;
53519;SDS011;39397;53.204;5.778;2022-10-29T00:39:31;66.55;;;13.38;;
53519;SDS011;39397;53.204;5.778;2022-10-29T00:41:57;51.08;;;12.10;;
53519;SDS011;39397;53.204;5.778;2022-10-29T00:44:26;106.65;;;14.88;;
53519;SDS011;39397;53.204;5.778;2022-10-29T00:46:59;99.13;;;14.13;;
53519;SDS011;39397;53.204;5.778;2022-10-29T00:49:29;214.73;;;17.75;;
53519;SDS011;39397;53.204;5.778;2022-10-29T00:51:57;152.52;;;14.88;;
53519;SDS011;39397;53.204;5.778;2022-10-29T00:54:25;143.02;;;16.27;;
53519;SDS011;39397;53.204;5.778;2022-10-29T00:57:26;198.13;;;17.90;;
53519;SDS011;39397;53.204;5.778;2022-10-29T00:59:52;87.22;;;12.18;;
53519;SDS011;39397;53.204;5.778;2022-10-29T01:02:18;107.07;;;14.25;;
53519;SDS011;39397;53.204;5.778;2022-10-29T01:04:45;83.55;;;11.25;;
53519;SDS011;39397;53.204;5.778;2022-10-29T01:07:11;105.68;;;11.88;;
53519;SDS011;39397;53.204;5.778;2022-10-29T01:09:37;191.50;;;15.40;;
53519;SDS011;39397;53.204;5.778;2022-10-29T01:44:11;56.72;;;8.77;;
53519;SDS011;39397;53.204;5.778;2022-10-29T01:46:48;98.68;;;10.98;;
53519;SDS011;39397;53.204;5.778;2022-10-29T01:49:19;143.02;;;16.67;;
53519;SDS011;39397;53.204;5.778;2022-10-29T01:51:51;117.63;;;10.50;;
53519;SDS011;39397;53.204;5.778;2022-10-29T01:54:18;63.90;;;9.93;;
53519;SDS011;39397;53.204;5.778;2022-10-29T01:56:51;116.72;;;13.23;;
53519;SDS011;39397;53.204;5.778;2022-10-29T01:59:18;58.67;;;12.30;;
53519;SDS011;39397;53.204;5.778;2022-10-29T02:01:49;135.13;;;15.93;;
53519;SDS011;39397;53.204;5.778;2022-10-29T02:09:41;57.72;;;10.23;;
53519;SDS011;39397;53.204;5.778;2022-10-29T02:12:26;108.00;;;13.77;;
53519;SDS011;39397;53.204;5.778;2022-10-29T02:17:29;66.97;;;11.55;;
53519;SDS011;39397;53.204;5.778;2022-10-29T02:20:02;82.53;;;12.18;;
53519;SDS011;39397;53.204;5.778;2022-10-29T02:22:32;85.90;;;10.07;;
53519;SDS011;39397;53.204;5.778;2022-10-29T02:24:58;208.02;;;22.27;;
53519;SDS011;39397;53.204;5.778;2022-10-29T02:27:24;195.18;;;17.80;;
53519;SDS011;39397;53.204;5.778;2022-10-29T02:29:49;147.88;;;13.98;;
53519;SDS011;39397;53.204;5.778;2022-10-29T02:32:15;54.75;;;9.40;;
53519;SDS011;39397;53.204;5.778;2022-10-29T02:34:41;74.80;;;11.68;;
53519;SDS011;39397;53.204;5.778;2022-10-29T02:37:06;98.60;;;10.18;;
53519;SDS011;39397;53.204;5.778;2022-10-29T02:39:32;179.60;;;13.70;;
53519;SDS011;39397;53.204;5.778;2022-10-29T02:41:58;146.00;;;13.40;;
53519;SDS011;39397;53.204;5.778;2022-10-29T02:44:23;39.15;;;8.90;;
53519;SDS011;39397;53.204;5.778;2022-10-29T02:46:49;111.55;;;12.93;;
53519;SDS011;39397;53.204;5.778;2022-10-29T02:49:15;45.20;;;8.38;;
53519;SDS011;39397;53.204;5.778;2022-10-29T02:51:40;26.05;;;7.65;;
53519;SDS011;39397;53.204;5.778;2022-10-29T02:54:06;46.35;;;8.18;;
53519;SDS011;39397;53.204;5.778;2022-10-29T02:56:32;70.75;;;10.65;;
53519;SDS011;39397;53.204;5.778;2022-10-29T02:58:57;62.15;;;8.65;;
53519;SDS011;39397;53.204;5.778;2022-10-29T03:01:23;69.40;;;9.98;;
53519;SDS011;39397;53.204;5.778;2022-10-29T03:03:49;43.00;;;8.52;;
53519;SDS011;39397;53.204;5.778;2022-10-29T03:06:15;56.17;;;9.48;;
53519;SDS011;39397;53.204;5.778;2022-10-29T03:08:43;52.00;;;8.98;;
53519;SDS011;39397;53.204;5.778;2022-10-29T03:11:09;44.80;;;8.88;;
53519;SDS011;39397;53.204;5.778;2022-10-29T03:13:36;44.08;;;9.00;;
53519;SDS011;39397;53.204;5.778;2022-10-29T03:16:02;50.50;;;10.10;;
53519;SDS011;39397;53.204;5.778;2022-10-29T03:18:28;27.90;;;7.63;;
53519;SDS011;39397;53.204;5.778;2022-10-29T03:20:53;34.85;;;7.20;;
53519;SDS011;39397;53.204;5.778;2022-10-29T03:23:19;36.55;;;8.10;;
53519;SDS011;39397;53.204;5.778;2022-10-29T03:25:52;41.03;;;8.40;;
53519;SDS011;39397;53.204;5.778;2022-10-29T03:28:20;38.23;;;7.80;;
53519;SDS011;39397;53.204;5.778;2022-10-29T03:30:47;41.83;;;7.65;;
53519;SDS011;39397;53.204;5.778;2022-10-29T03:33:12;28.70;;;7.40;;
53519;SDS011;39397;53.204;5.778;2022-10-29T03:35:38;33.92;;;9.10;;
53519;SDS011;39397;53.204;5.778;2022-10-29T03:38:04;46.20;;;8.43;;
53519;SDS011;39397;53.204;5.778;2022-10-29T03:40:30;26.83;;;8.43;;
53519;SDS011;39397;53.204;5.778;2022-10-29T03:42:55;50.30;;;8.00;;
53519;SDS011;39397;53.204;5.778;2022-10-29T03:45:21;90.72;;;12.75;;
53519;SDS011;39397;53.204;5.778;2022-10-29T03:47:47;31.27;;;6.97;;
53519;SDS011;39397;53.204;5.778;2022-10-29T03:50:12;50.67;;;7.82;;
53519;SDS011;39397;53.204;5.778;2022-10-29T03:52:38;62.95;;;9.27;;
53519;SDS011;39397;53.204;5.778;2022-10-29T03:55:04;42.53;;;8.35;;
53519;SDS011;39397;53.204;5.778;2022-10-29T03:57:30;105.40;;;10.93;;
53519;SDS011;39397;53.204;5.778;2022-10-29T03:59:56;30.90;;;7.70;;
53519;SDS011;39397;53.204;5.778;2022-10-29T04:02:22;39.55;;;7.70;;
53519;SDS011;39397;53.204;5.778;2022-10-29T04:04:48;45.25;;;9.18;;
53519;SDS011;39397;53.204;5.778;2022-10-29T04:07:14;60.13;;;8.50;;
53519;SDS011;39397;53.204;5.778;2022-10-29T04:09:40;52.50;;;7.22;;
53519;SDS011;39397;53.204;5.778;2022-10-29T04:12:06;81.30;;;9.43;;
53519;SDS011;39397;53.204;5.778;2022-10-29T04:14:32;67.20;;;8.48;;
53519;SDS011;39397;53.204;5.778;2022-10-29T04:16:58;129.23;;;11.60;;
53519;SDS011;39397;53.204;5.778;2022-10-29T04:19:24;66.82;;;6.43;;
53519;SDS011;39397;53.204;5.778;2022-10-29T04:21:50;34.72;;;6.70;;
53519;SDS011;39397;53.204;5.778;2022-10-29T04:24:15;52.35;;;8.38;;
53519;SDS011;39397;53.204;5.778;2022-10-29T04:26:41;33.13;;;7.60;;
53519;SDS011;39397;53.204;5.778;2022-10-29T04:29:07;36.55;;;8.30;;
53519;SDS011;39397;53.204;5.778;2022-10-29T04:31:33;34.42;;;6.63;;
53519;SDS011;39397;53.204;5.778;2022-10-29T04:34:00;76.20;;;9.30;;
53519;SDS011;39397;53.204;5.778;2022-10-29T04:36:25;77.60;;;8.68;;
53519;SDS011;39397;53.204;5.778;2022-10-29T04:38:51;112.53;;;11.77;;
53519;SDS011;39397;53.204;5.778;2022-10-29T04:41:17;82.85;;;9.43;;
53519;SDS011;39397;53.204;5.778;2022-10-29T04:43:42;199.35;;;14.75;;
53519;SDS011;39397;53.204;5.778;2022-10-29T04:46:08;94.05;;;10.73;;
53519;SDS011;39397;53.204;5.778;2022-10-29T04:48:34;103.85;;;12.85;;
53519;SDS011;39397;53.204;5.778;2022-10-29T04:51:00;82.32;;;11.18;;
53519;SDS011;39397;53.204;5.778;2022-10-29T04:53:26;94.75;;;13.15;;
53519;SDS011;39397;53.204;5.778;2022-10-29T04:55:57;77.63;;;11.05;;
53519;SDS011;39397;53.204;5.778;2022-10-29T04:58:24;53.90;;;9.10;;
53519;SDS011;39397;53.204;5.778;2022-10-29T05:00:49;36.85;;;8.60;;
53519;SDS011;39397;53.204;5.778;2022-10-29T05:03:15;83.30;;;11.85;;
53519;SDS011;39397;53.204;5.778;2022-10-29T05:05:41;46.70;;;9.75;;
53519;SDS011;39397;53.204;5.778;2022-10-29T05:08:07;59.90;;;11.25;;
53519;SDS011;39397;53.204;5.778;2022-10-29T05:10:35;58.47;;;10.07;;
53519;SDS011;39397;53.204;5.778;2022-10-29T05:13:09;85.53;;;12.40;;
53519;SDS011;39397;53.204;5.778;2022-10-29T05:15:36;88.10;;;11.82;;
53519;SDS011;39397;53.204;5.778;2022-10-29T05:18:02;65.50;;;10.88;;
53519;SDS011;39397;53.204;5.778;2022-10-29T05:20:29;66.13;;;12.57;;
53519;SDS011;39397;53.204;5.778;2022-10-29T05:22:58;73.00;;;11.10;;
53519;SDS011;39397;53.204;5.778;2022-10-29T05:25:25;59.22;;;11.07;;
53519;SDS011;39397;53.204;5.778;2022-10-29T05:27:58;49.55;;;10.05;;
53519;SDS011;39397;53.204;5.778;2022-10-29T05:30:33;78.47;;;12.40;;
53519;SDS011;39397;53.204;5.778;2022-10-29T05:32:59;102.88;;;13.40;;
53519;SDS011;39397;53.204;5.778;2022-10-29T05:35:25;134.95;;;13.98;;
53519;SDS011;39397;53.204;5.778;2022-10-29T05:37:51;79.13;;;11.98;;
53519;SDS011;39397;53.204;5.778;2022-10-29T05:40:19;153.07;;;15.35;;
53519;SDS011;39397;53.204;5.778;2022-10-29T05:42:45;113.43;;;14.20;;
53519;SDS011;39397;53.204;5.778;2022-10-29T05:45:11;241.95;;;15.88;;
53519;SDS011;39397;53.204;5.778;2022-10-29T05:47:37;153.25;;;13.68;;
53519;SDS011;39397;53.204;5.778;2022-10-29T05:50:03;74.72;;;11.05;;
53519;SDS011;39397;53.204;5.778;2022-10-29T05:52:28;80.50;;;11.02;;
53519;SDS011;39397;53.204;5.778;2022-10-29T05:54:54;110.28;;;13.20;;
53519;SDS011;39397;53.204;5.778;2022-10-29T05:57:20;108.28;;;13.35;;
53519;SDS011;39397;53.204;5.778;2022-10-29T05:59:46;269.55;;;20.52;;
53519;SDS011;39397;53.204;5.778;2022-10-29T06:02:11;170.88;;;13.68;;
53519;SDS011;39397;53.204;5.778;2022-10-29T06:04:37;147.85;;;12.73;;
53519;SDS011;39397;53.204;5.778;2022-10-29T06:07:03;125.45;;;12.00;;
53519;SDS011;39397;53.204;5.778;2022-10-29T06:09:28;121.93;;;12.00;;
53519;SDS011;39397;53.204;5.778;2022-10-29T06:11:54;130.60;;;13.45;;
53519;SDS011;39397;53.204;5.778;2022-10-29T06:14:20;79.28;;;10.68;;
53519;SDS011;39397;53.204;5.778;2022-10-29T06:16:46;59.40;;;10.90;;
53519;SDS011;39397;53.204;5.778;2022-10-29T06:19:11;51.17;;;10.38;;
53519;SDS011;39397;53.204;5.778;2022-10-29T06:21:37;78.05;;;11.20;;
53519;SDS011;39397;53.204;5.778;2022-10-29T06:24:03;78.60;;;11.68;;
53519;SDS011;39397;53.204;5.778;2022-10-29T06:26:29;57.85;;;10.95;;
53519;SDS011;39397;53.204;5.778;2022-10-29T06:28:55;111.50;;;12.98;;
53519;SDS011;39397;53.204;5.778;2022-10-29T06:31:20;81.55;;;11.73;;
53519;SDS011;39397;53.204;5.778;2022-10-29T06:33:46;75.47;;;11.15;;
53519;SDS011;39397;53.204;5.778;2022-10-29T06:36:12;126.53;;;13.90;;
53519;SDS011;39397;53.204;5.778;2022-10-29T06:38:38;99.78;;;11.73;;
53519;SDS011;39397;53.204;5.778;2022-10-29T06:41:03;86.03;;;10.13;;
53519;SDS011;39397;53.204;5.778;2022-10-29T06:43:29;80.43;;;11.18;;
53519;SDS011;39397;53.204;5.778;2022-10-29T06:45:55;101.43;;;13.65;;
53519;SDS011;39397;53.204;5.778;2022-10-29T06:48:21;107.28;;;11.88;;
53519;SDS011;39397;53.204;5.778;2022-10-29T06:50:46;70.00;;;10.55;;
53519;SDS011;39397;53.204;5.778;2022-10-29T06:53:12;42.80;;;10.45;;
53519;SDS011;39397;53.204;5.778;2022-10-29T06:55:39;39.25;;;9.85;;
53519;SDS011;39397;53.204;5.778;2022-10-29T06:58:14;75.90;;;12.70;;
53519;SDS011;39397;53.204;5.778;2022-10-29T07:00:42;55.00;;;10.27;;
53519;SDS011;39397;53.204;5.778;2022-10-29T07:03:11;88.25;;;11.80;;
53519;SDS011;39397;53.204;5.778;2022-10-29T07:05:37;46.35;;;8.40;;
53519;SDS011;39397;53.204;5.778;2022-10-29T07:08:03;64.45;;;10.45;;
53519;SDS011;39397;53.204;5.778;2022-10-29T07:10:29;92.55;;;12.30;;
53519;SDS011;39397;53.204;5.778;2022-10-29T07:12:56;41.88;;;9.40;;
53519;SDS011;39397;53.204;5.778;2022-10-29T07:15:22;71.55;;;9.82;;
53519;SDS011;39397;53.204;5.778;2022-10-29T07:17:58;47.90;;;8.25;;
53519;SDS011;39397;53.204;5.778;2022-10-29T07:20:25;167.85;;;13.90;;
53519;SDS011;39397;53.204;5.778;2022-10-29T07:22:54;142.75;;;13.25;;
53519;SDS011;39397;53.204;5.778;2022-10-29T07:25:21;64.30;;;9.50;;
53519;SDS011;39397;53.204;5.778;2022-10-29T07:27:47;105.07;;;10.82;;
53519;SDS011;39397;53.204;5.778;2022-10-29T07:30:13;157.35;;;14.98;;
53519;SDS011;39397;53.204;5.778;2022-10-29T07:32:39;165.98;;;13.18;;
53519;SDS011;39397;53.204;5.778;2022-10-29T07:35:04;86.40;;;11.80;;
53519;SDS011;39397;53.204;5.778;2022-10-29T07:37:30;71.05;;;10.75;;
53519;SDS011;39397;53.204;5.778;2022-10-29T07:39:56;54.10;;;10.70;;
53519;SDS011;39397;53.204;5.778;2022-10-29T07:42:22;55.80;;;11.48;;
53519;SDS011;39397;53.204;5.778;2022-10-29T07:44:48;59.20;;;12.55;;
53519;SDS011;39397;53.204;5.778;2022-10-29T07:47:14;94.55;;;14.15;;
53519;SDS011;39397;53.204;5.778;2022-10-29T07:49:39;112.05;;;13.13;;
53519;SDS011;39397;53.204;5.778;2022-10-29T07:52:05;108.35;;;13.05;;
53519;SDS011;39397;53.204;5.778;2022-10-29T07:54:31;63.03;;;12.30;;
53519;SDS011;39397;53.204;5.778;2022-10-29T07:56:56;69.43;;;11.10;;
53519;SDS011;39397;53.204;5.778;2022-10-29T07:59:22;97.85;;;14.05;;
53519;SDS011;39397;53.204;5.778;2022-10-29T08:01:48;105.82;;;15.32;;
53519;SDS011;39397;53.204;5.778;2022-10-29T08:04:13;68.60;;;11.63;;
53519;SDS011;39397;53.204;5.778;2022-10-29T08:06:39;72.10;;;12.52;;
53519;SDS011;39397;53.204;5.778;2022-10-29T08:09:05;103.53;;;14.23;;
53519;SDS011;39397;53.204;5.778;2022-10-29T08:11:31;79.28;;;12.88;;
53519;SDS011;39397;53.204;5.778;2022-10-29T08:13:57;72.18;;;12.98;;
53519;SDS011;39397;53.204;5.778;2022-10-29T08:16:23;81.90;;;13.73;;
53519;SDS011;39397;53.204;5.778;2022-10-29T08:18:49;48.72;;;12.45;;
53519;SDS011;39397;53.204;5.778;2022-10-29T08:21:15;50.42;;;13.43;;
53519;SDS011;39397;53.204;5.778;2022-10-29T08:23:42;37.95;;;12.95;;
53519;SDS011;39397;53.204;5.778;2022-10-29T08:26:07;44.00;;;13.48;;
53519;SDS011;39397;53.204;5.778;2022-10-29T08:28:33;35.47;;;12.55;;
53519;SDS011;39397;53.204;5.778;2022-10-29T08:30:59;37.38;;;13.70;;
53519;SDS011;39397;53.204;5.778;2022-10-29T08:33:25;27.08;;;10.98;;
53519;SDS011;39397;53.204;5.778;2022-10-29T08:35:50;41.28;;;14.77;;
53519;SDS011;39397;53.204;5.778;2022-10-29T08:38:18;48.92;;;16.13;;
53519;SDS011;39397;53.204;5.778;2022-10-29T08:46:48;33.80;;;15.90;;
53519;SDS011;39397;53.204;5.778;2022-10-29T08:49:20;29.05;;;16.30;;
53519;SDS011;39397;53.204;5.778;2022-10-29T08:52:16;36.47;;;17.48;;
53519;SDS011;39397;53.204;5.778;2022-10-29T08:57:51;33.30;;;16.55;;
53519;SDS011;39397;53.204;5.778;2022-10-29T09:00:21;29.00;;;16.30;;
53519;SDS011;39397;53.204;5.778;2022-10-29T09:02:56;34.22;;;17.20;;
53519;SDS011;39397;53.204;5.778;2022-10-29T09:05:27;33.17;;;17.80;;
53519;SDS011;39397;53.204;5.778;2022-10-29T09:10:38;31.23;;;17.70;;
53519;SDS011;39397;53.204;5.778;2022-10-29T09:21:54;32.33;;;16.98;;
53519;SDS011;39397;53.204;5.778;2022-10-29T09:24:29;29.33;;;18.02;;
53519;SDS011;39397;53.204;5.778;2022-10-29T09:32:32;29.92;;;17.85;;
53519;SDS011;39397;53.204;5.778;2022-10-29T09:35:11;27.48;;;15.68;;
53519;SDS011;39397;53.204;5.778;2022-10-29T09:37:48;26.85;;;15.18;;
53519;SDS011;39397;53.204;5.778;2022-10-29T09:40:33;31.00;;;16.20;;
53519;SDS011;39397;53.204;5.778;2022-10-29T09:43:06;33.80;;;17.02;;
53519;SDS011;39397;53.204;5.778;2022-10-29T09:48:36;24.38;;;13.77;;
53519;SDS011;39397;53.204;5.778;2022-10-29T09:51:19;23.98;;;14.23;;
53519;SDS011;39397;53.204;5.778;2022-10-29T09:53:50;22.17;;;13.23;;
53519;SDS011;39397;53.204;5.778;2022-10-29T09:56:16;20.83;;;12.32;;
53519;SDS011;39397;53.204;5.778;2022-10-29T09:58:42;23.35;;;13.50;;
53519;SDS011;39397;53.204;5.778;2022-10-29T10:01:11;19.75;;;12.55;;
53519;SDS011;39397;53.204;5.778;2022-10-29T10:06:11;23.35;;;13.23;;
53519;SDS011;39397;53.204;5.778;2022-10-29T10:14:04;20.45;;;12.00;;
53519;SDS011;39397;53.204;5.778;2022-10-29T10:16:40;23.60;;;11.60;;
53519;SDS011;39397;53.204;5.778;2022-10-29T10:19:41;20.48;;;10.38;;
53519;SDS011;39397;53.204;5.778;2022-10-29T10:22:08;20.70;;;11.20;;
53519;SDS011;39397;53.204;5.778;2022-10-29T10:24:44;19.67;;;11.23;;
53519;SDS011;39397;53.204;5.778;2022-10-29T10:29:42;17.15;;;10.68;;
53519;SDS011;39397;53.204;5.778;2022-10-29T10:32:17;19.90;;;10.23;;
53519;SDS011;39397;53.204;5.778;2022-10-29T10:34:43;18.30;;;10.90;;
53519;SDS011;39397;53.204;5.778;2022-10-29T10:39:38;22.15;;;11.20;;
53519;SDS011;39397;53.204;5.778;2022-10-29T10:42:19;18.55;;;9.95;;
53519;SDS011;39397;53.204;5.778;2022-10-29T10:47:21;17.90;;;10.32;;
53519;SDS011;39397;53.204;5.778;2022-10-29T10:49:49;18.40;;;10.32;;
53519;SDS011;39397;53.204;5.778;2022-10-29T10:52:19;23.42;;;10.40;;
53519;SDS011;39397;53.204;5.778;2022-10-29T10:57:21;18.00;;;10.60;;
53519;SDS011;39397;53.204;5.778;2022-10-29T11:05:28;19.40;;;10.45;;
53519;SDS011;39397;53.204;5.778;2022-10-29T11:08:08;18.50;;;10.23;;
53519;SDS011;39397;53.204;5.778;2022-10-29T11:10:56;16.77;;;10.25;;
53519;SDS011;39397;53.204;5.778;2022-10-29T11:13:26;17.02;;;10.15;;
53519;SDS011;39397;53.204;5.778;2022-10-29T11:16:10;19.55;;;10.93;;
53519;SDS011;39397;53.204;5.778;2022-10-29T11:24:44;21.65;;;12.00;;
53519;SDS011;39397;53.204;5.778;2022-10-29T11:27:44;18.52;;;10.10;;
53519;SDS011;39397;53.204;5.778;2022-10-29T11:30:15;24.08;;;11.70;;
53519;SDS011;39397;53.204;5.778;2022-10-29T11:38:17;20.58;;;10.85;;
53519;SDS011;39397;53.204;5.778;2022-10-29T11:41:01;17.40;;;10.60;;
53519;SDS011;39397;53.204;5.778;2022-10-29T11:43:32;23.77;;;10.38;;
53519;SDS011;39397;53.204;5.778;2022-10-29T11:46:11;17.90;;;10.98;;
53519;SDS011;39397;53.204;5.778;2022-10-29T11:49:14;17.60;;;10.52;;
53519;SDS011;39397;53.204;5.778;2022-10-29T11:51:46;19.35;;;11.15;;
53519;SDS011;39397;53.204;5.778;2022-10-29T12:05:33;18.42;;;10.27;;
53519;SDS011;39397;53.204;5.778;2022-10-29T12:26:41;19.60;;;8.88;;
53519;SDS011;39397;53.204;5.778;2022-10-29T12:29:15;18.50;;;10.35;;
53519;SDS011;39397;53.204;5.778;2022-10-29T12:34:58;20.60;;;9.75;;
53519;SDS011;39397;53.204;5.778;2022-10-29T12:37:36;14.45;;;8.27;;
53519;SDS011;39397;53.204;5.778;2022-10-29T12:40:16;17.38;;;9.30;;
53519;SDS011;39397;53.204;5.778;2022-10-29T12:42:52;16.42;;;9.30;;
53519;SDS011;39397;53.204;5.778;2022-10-29T12:45:25;17.27;;;10.32;;
53519;SDS011;39397;53.204;5.778;2022-10-29T12:50:49;22.70;;;10.57;;
53519;SDS011;39397;53.204;5.778;2022-10-29T12:53:29;19.95;;;9.75;;
53519;SDS011;39397;53.204;5.778;2022-10-29T12:56:01;21.55;;;10.07;;
53519;SDS011;39397;53.204;5.778;2022-10-29T12:58:43;17.48;;;9.00;;
53519;SDS011;39397;53.204;5.778;2022-10-29T13:17:00;17.08;;;7.90;;
53519;SDS011;39397;53.204;5.778;2022-10-29T13:19:36;19.10;;;8.18;;
53519;SDS011;39397;53.204;5.778;2022-10-29T13:24:39;17.38;;;7.75;;
53519;SDS011;39397;53.204;5.778;2022-10-29T13:27:31;14.13;;;7.68;;
53519;SDS011;39397;53.204;5.778;2022-10-29T13:30:12;15.27;;;7.80;;
53519;SDS011;39397;53.204;5.778;2022-10-29T13:32:39;20.35;;;8.38;;
53519;SDS011;39397;53.204;5.778;2022-10-29T13:42:47;19.98;;;7.88;;
53519;SDS011;39397;53.204;5.778;2022-10-29T13:48:37;14.85;;;8.07;;
53519;SDS011;39397;53.204;5.778;2022-10-29T13:51:06;14.48;;;7.47;;
53519;SDS011;39397;53.204;5.778;2022-10-29T13:53:42;13.88;;;8.07;;
53519;SDS011;39397;53.204;5.778;2022-10-29T13:56:17;18.67;;;8.40;;
53519;SDS011;39397;53.204;5.778;2022-10-29T13:58:51;15.68;;;8.15;;
53519;SDS011;39397;53.204;5.778;2022-10-29T14:01:18;20.83;;;8.65;;
53519;SDS011;39397;53.204;5.778;2022-10-29T14:06:40;19.13;;;8.38;;
53519;SDS011;39397;53.204;5.778;2022-10-29T14:09:10;16.58;;;8.25;;
53519;SDS011;39397;53.204;5.778;2022-10-29T14:11:53;15.60;;;7.85;;
53519;SDS011;39397;53.204;5.778;2022-10-29T14:14:48;16.90;;;8.20;;
53519;SDS011;39397;53.204;5.778;2022-10-29T14:17:24;17.23;;;8.38;;
53519;SDS011;39397;53.204;5.778;2022-10-29T14:19:50;14.40;;;8.27;;
53519;SDS011;39397;53.204;5.778;2022-10-29T14:22:36;18.65;;;8.50;;
53519;SDS011;39397;53.204;5.778;2022-10-29T14:25:21;15.98;;;8.93;;
53519;SDS011;39397;53.204;5.778;2022-10-29T14:28:10;16.95;;;8.27;;
53519;SDS011;39397;53.204;5.778;2022-10-29T14:30:34;18.85;;;8.63;;
53519;SDS011;39397;53.204;5.778;2022-10-29T14:33:01;12.13;;;7.80;;
53519;SDS011;39397;53.204;5.778;2022-10-29T14:35:40;15.25;;;8.05;;
53519;SDS011;39397;53.204;5.778;2022-10-29T14:38:06;15.73;;;7.13;;
53519;SDS011;39397;53.204;5.778;2022-10-29T14:40:33;17.48;;;8.98;;
53519;SDS011;39397;53.204;5.778;2022-10-29T14:42:58;20.10;;;7.70;;
53519;SDS011;39397;53.204;5.778;2022-10-29T14:45:26;18.50;;;8.52;;
53519;SDS011;39397;53.204;5.778;2022-10-29T14:47:55;14.98;;;7.90;;
53519;SDS011;39397;53.204;5.778;2022-10-29T14:50:23;15.02;;;8.02;;
53519;SDS011;39397;53.204;5.778;2022-10-29T14:52:57;17.65;;;8.30;;
53519;SDS011;39397;53.204;5.778;2022-10-29T14:55:38;17.88;;;9.95;;
53519;SDS011;39397;53.204;5.778;2022-10-29T15:00:52;18.73;;;9.80;;
53519;SDS011;39397;53.204;5.778;2022-10-29T15:03:24;16.70;;;8.43;;
53519;SDS011;39397;53.204;5.778;2022-10-29T15:06:08;16.08;;;8.57;;
53519;SDS011;39397;53.204;5.778;2022-10-29T15:08:57;15.18;;;8.00;;
53519;SDS011;39397;53.204;5.778;2022-10-29T15:11:40;18.90;;;8.57;;
53519;SDS011;39397;53.204;5.778;2022-10-29T15:14:26;14.48;;;8.40;;
53519;SDS011;39397;53.204;5.778;2022-10-29T15:16:56;26.42;;;8.98;;
53519;SDS011;39397;53.204;5.778;2022-10-29T15:19:22;15.20;;;7.85;;
53519;SDS011;39397;53.204;5.778;2022-10-29T15:21:48;16.27;;;8.48;;
53519;SDS011;39397;53.204;5.778;2022-10-29T15:24:18;20.48;;;9.43;;
53519;SDS011;39397;53.204;5.778;2022-10-29T15:26:48;16.98;;;8.68;;
53519;SDS011;39397;53.204;5.778;2022-10-29T15:29:17;17.05;;;9.07;;
53519;SDS011;39397;53.204;5.778;2022-10-29T15:31:54;15.82;;;8.60;;
53519;SDS011;39397;53.204;5.778;2022-10-29T15:34:33;20.05;;;9.05;;
53519;SDS011;39397;53.204;5.778;2022-10-29T15:37:13;16.45;;;8.63;;
53519;SDS011;39397;53.204;5.778;2022-10-29T15:40:39;18.90;;;9.82;;
53519;SDS011;39397;53.204;5.778;2022-10-29T15:42:36;18.58;;;9.10;;
53519;SDS011;39397;53.204;5.778;2022-10-29T15:47:32;17.50;;;9.38;;
53519;SDS011;39397;53.204;5.778;2022-10-29T15:49:59;22.65;;;10.15;;
53519;SDS011;39397;53.204;5.778;2022-10-29T15:52:26;18.77;;;9.70;;
53519;SDS011;39397;53.204;5.778;2022-10-29T15:54:58;16.35;;;10.07;;
53519;SDS011;39397;53.204;5.778;2022-10-29T15:57:25;21.55;;;10.80;;
53519;SDS011;39397;53.204;5.778;2022-10-29T15:59:51;17.95;;;10.90;;
53519;SDS011;39397;53.204;5.778;2022-10-29T16:02:22;18.42;;;9.90;;
53519;SDS011;39397;53.204;5.778;2022-10-29T16:04:49;17.45;;;10.05;;
53519;SDS011;39397;53.204;5.778;2022-10-29T16:07:15;20.20;;;10.90;;
53519;SDS011;39397;53.204;5.778;2022-10-29T16:09:43;29.45;;;20.45;;
53519;SDS011;39397;53.204;5.778;2022-10-29T16:12:12;24.85;;;12.73;;
53519;SDS011;39397;53.204;5.778;2022-10-29T16:14:38;24.73;;;11.75;;
53519;SDS011;39397;53.204;5.778;2022-10-29T16:17:08;17.63;;;10.38;;
53519;SDS011;39397;53.204;5.778;2022-10-29T16:19:38;18.02;;;11.07;;
53519;SDS011;39397;53.204;5.778;2022-10-29T16:22:04;18.67;;;10.20;;
53519;SDS011;39397;53.204;5.778;2022-10-29T16:24:34;24.33;;;11.23;;
53519;SDS011;39397;53.204;5.778;2022-10-29T16:27:00;26.23;;;10.82;;
53519;SDS011;39397;53.204;5.778;2022-10-29T16:29:25;19.98;;;10.48;;
53519;SDS011;39397;53.204;5.778;2022-10-29T16:31:51;22.85;;;10.38;;
53519;SDS011;39397;53.204;5.778;2022-10-29T16:34:17;22.67;;;10.15;;
53519;SDS011;39397;53.204;5.778;2022-10-29T16:36:43;28.23;;;11.27;;
53519;SDS011;39397;53.204;5.778;2022-10-29T16:39:09;18.50;;;11.00;;
53519;SDS011;39397;53.204;5.778;2022-10-29T16:41:34;18.15;;;10.40;;
53519;SDS011;39397;53.204;5.778;2022-10-29T16:44:00;24.88;;;10.82;;
53519;SDS011;39397;53.204;5.778;2022-10-29T16:46:26;18.10;;;10.00;;
53519;SDS011;39397;53.204;5.778;2022-10-29T16:48:51;21.92;;;11.13;;
53519;SDS011;39397;53.204;5.778;2022-10-29T16:51:17;19.58;;;11.00;;
53519;SDS011;39397;53.204;5.778;2022-10-29T16:53:43;22.27;;;11.00;;
53519;SDS011;39397;53.204;5.778;2022-10-29T16:56:08;24.65;;;10.20;;
53519;SDS011;39397;53.204;5.778;2022-10-29T16:58:34;21.75;;;11.10;;
53519;SDS011;39397;53.204;5.778;2022-10-29T17:01:00;23.45;;;11.43;;
53519;SDS011;39397;53.204;5.778;2022-10-29T17:03:29;20.88;;;11.43;;
53519;SDS011;39397;53.204;5.778;2022-10-29T17:06:01;20.50;;;11.07;;
53519;SDS011;39397;53.204;5.778;2022-10-29T17:08:31;21.92;;;11.38;;
53519;SDS011;39397;53.204;5.778;2022-10-29T17:11:01;22.60;;;12.05;;
53519;SDS011;39397;53.204;5.778;2022-10-29T17:13:30;20.15;;;11.82;;
53519;SDS011;39397;53.204;5.778;2022-10-29T17:15:56;20.42;;;11.15;;
53519;SDS011;39397;53.204;5.778;2022-10-29T17:18:21;18.92;;;10.73;;
53519;SDS011;39397;53.204;5.778;2022-10-29T17:20:58;18.40;;;10.73;;
53519;SDS011;39397;53.204;5.778;2022-10-29T17:23:25;22.77;;;12.13;;
53519;SDS011;39397;53.204;5.778;2022-10-29T17:25:51;20.67;;;12.35;;
53519;SDS011;39397;53.204;5.778;2022-10-29T17:28:18;24.20;;;12.52;;
53519;SDS011;39397;53.204;5.778;2022-10-29T17:30:45;23.20;;;11.70;;
53519;SDS011;39397;53.204;5.778;2022-10-29T17:33:10;24.27;;;12.13;;